Time;durP1;ratioP1;P1;durP2;ratioP2;P2;SDS_P1;SDS_P2;PMS_P1;PMS_P2;Temp;Humidity;BMP_temperature;BMP_pressure;BME280_temperature;BME280_humidity;BME280_pressure;Samples;Min_cycle;Max_cycle;Signal;HPM_P1;HPM_P2
2023/05/22 00:00:30;;;;;;;18.15;16.60;;;;;;;18.28;54.34;100412.97;4957021;28;100875;-75
2023/05/22 00:02:57;;;;;;;17.60;16.23;;;;;;;18.26;54.26;100394.44;4960699;28;101927;-74
2023/05/22 00:05:22;;;;;;;18.25;16.55;;;;;;;18.25;53.83;100383.94;4940548;28;96953;-74
2023/05/22 00:07:48;;;;;;;16.08;14.82;;;;;;;18.07;54.74;100410.75;4973913;28;97217;-74
2023/05/22 00:10:14;;;;;;;18.75;17.30;;;;;;;18.00;54.24;100376.69;4971062;28;97830;-75
2023/05/22 00:12:39;;;;;;;19.40;17.63;;;;;;;18.09;54.45;100394.69;4957749;28;101003;-74
2023/05/22 00:15:05;;;;;;;18.02;16.40;;;;;;;18.17;54.35;100404.84;4941005;28;96748;-75
2023/05/22 00:17:32;;;;;;;18.08;16.52;;;;;;;18.03;54.71;100411.03;4955082;28;96935;-74
2023/05/22 00:20:06;;;;;;;17.98;16.77;;;;;;;17.70;55.51;100403.34;4941017;28;101912;-74
2023/05/22 00:22:35;;;;;;;18.77;17.00;;;;;;;17.60;55.65;100397.78;4957757;28;101496;-74
2023/05/22 00:25:05;;;;;;;18.00;16.40;;;;;;;17.50;55.81;100381.56;4943445;28;97492;-74
2023/05/22 00:27:31;;;;;;;17.80;16.48;;;;;;;17.84;55.40;100398.06;4957267;28;97852;-74
2023/05/22 00:29:57;;;;;;;19.70;16.83;;;;;;;17.51;55.70;100379.75;4957762;28;97881;-74
2023/05/22 00:32:26;;;;;;;19.38;17.58;;;;;;;17.73;55.54;100401.34;4972058;28;98502;-74
2023/05/22 00:34:52;;;;;;;18.25;16.73;;;;;;;17.83;55.32;100415.81;4957640;28;97370;-74
2023/05/22 00:37:18;;;;;;;19.10;17.27;;;;;;;17.60;55.66;100398.63;4956499;28;97164;-74
2023/05/22 00:39:45;;;;;;;17.52;16.23;;;;;;;17.53;55.76;100401.75;4940785;28;100923;-74
2023/05/22 00:42:11;;;;;;;19.35;16.45;;;;;;;17.51;55.58;100391.25;4955779;28;99854;-74
2023/05/22 00:44:36;;;;;;;16.98;15.48;;;;;;;17.36;55.93;100398.31;4956394;28;96732;-74
2023/05/22 00:47:02;;;;;;;19.02;17.50;;;;;;;17.41;56.18;100398.88;4956762;28;97349;-74
2023/05/22 00:49:27;;;;;;;17.83;16.52;;;;;;;17.51;55.86;100366.47;4972465;28;101531;-75
2023/05/22 00:51:53;;;;;;;18.70;16.92;;;;;;;17.45;56.12;100401.34;4939901;28;101155;-74
2023/05/22 00:54:18;;;;;;;18.25;17.00;;;;;;;17.08;56.23;100358.53;4956636;28;97239;-74
2023/05/22 00:56:45;;;;;;;19.05;17.52;;;;;;;16.97;56.54;100383.88;4960318;28;97505;-74
2023/05/22 00:59:11;;;;;;;22.13;17.10;;;;;;;17.23;56.88;100404.47;4957293;28;101550;-74
2023/05/22 01:01:40;;;;;;;17.60;16.27;;;;;;;17.25;56.62;100402.56;4973283;28;97288;-75
2023/05/22 01:04:09;;;;;;;19.15;17.52;;;;;;;17.55;55.97;100402.50;4972068;28;98132;-75
2023/05/22 01:06:34;;;;;;;18.92;17.58;;;;;;;17.49;56.10;100402.88;4956423;28;96800;-75
2023/05/22 01:09:00;;;;;;;19.67;17.85;;;;;;;17.20;55.77;100393.09;4949500;28;101149;-74
2023/05/22 01:11:54;;;;;;;18.38;16.65;;;;;;;17.66;55.38;100410.66;4956510;28;101695;-74
2023/05/22 01:14:29;;;;;;;19.65;17.77;;;;;;;17.58;55.17;100400.50;4934075;28;97190;-74
2023/05/22 01:17:12;;;;;;;19.85;18.23;;;;;;;17.68;55.16;100406.09;4956497;28;97025;-74
2023/05/22 01:20:09;;;;;;;17.70;16.40;;;;;;;17.67;55.06;100408.84;4990943;28;97996;-74
2023/05/22 01:22:49;;;;;;;18.85;17.45;;;;;;;17.64;54.71;100410.75;4941706;28;102001;-75
2023/05/22 01:25:44;;;;;;;19.63;17.80;;;;;;;17.68;54.93;100418.53;4963447;28;97377;-75
2023/05/22 01:28:45;;;;;;;18.45;16.95;;;;;;;17.28;55.71;100413.00;4948118;28;98327;-74
2023/05/22 01:31:14;;;;;;;29.15;17.40;;;;;;;17.04;56.38;100410.00;4953647;28;97534;-74
2023/05/22 01:33:57;;;;;;;19.08;17.25;;;;;;;17.33;55.89;100416.22;4933659;28;101665;-75
2023/05/22 01:36:27;;;;;;;18.85;17.15;;;;;;;17.22;56.12;100414.25;4954992;28;97344;-74
2023/05/22 01:38:53;;;;;;;18.17;16.92;;;;;;;17.33;55.82;100416.22;4956378;28;96797;-74
2023/05/22 01:41:20;;;;;;;19.20;17.55;;;;;;;17.31;55.43;100399.56;4971626;28;101108;-75
2023/05/22 01:43:46;;;;;;;17.70;16.35;;;;;;;17.15;55.94;100413.72;4956064;28;97887;-75
2023/05/22 01:46:12;;;;;;;19.15;17.17;;;;;;;17.24;55.64;100411.47;4972123;28;96819;-74
2023/05/22 01:48:37;;;;;;;18.35;16.70;;;;;;;17.05;55.94;100407.28;4969121;28;98478;-74
2023/05/22 01:51:42;;;;;;;19.38;17.83;;;;;;;17.19;55.67;100417.03;4939572;28;101375;-74
2023/05/22 01:54:35;;;;;;;16.65;15.35;;;;;;;17.13;55.49;100405.03;4955895;28;98761;-75
2023/05/22 01:57:25;;;;;;;17.63;16.38;;;;;;;17.14;55.86;100419.16;4956004;28;97183;-74
2023/05/22 01:59:57;;;;;;;19.88;18.08;;;;;;;17.34;54.96;100407.34;4956605;28;96975;-74
2023/05/22 02:02:23;;;;;;;19.15;17.38;;;;;;;17.35;55.05;100407.22;4937655;28;101423;-74
2023/05/22 02:04:55;;;;;;;20.45;18.80;;;;;;;16.84;56.12;100385.56;4939434;28;99569;-74
2023/05/22 02:07:23;;;;;;;18.45;17.17;;;;;;;17.04;55.99;100404.72;4939123;28;97141;-74
2023/05/22 02:09:51;;;;;;;18.02;16.67;;;;;;;16.96;55.67;100391.94;4938824;28;96896;-74
2023/05/22 02:12:16;;;;;;;19.05;17.33;;;;;;;16.62;56.52;100403.63;4954246;28;101701;-74
2023/05/22 02:14:42;;;;;;;17.50;15.80;;;;;;;16.87;55.96;100411.00;4936488;28;101382;-75
2023/05/22 02:17:08;;;;;;;17.80;16.38;;;;;;;17.00;55.61;100396.09;4951481;28;97525;-75
2023/05/22 02:19:36;;;;;;;19.10;17.55;;;;;;;16.96;55.32;100392.78;4959968;28;97351;-75
2023/05/22 02:22:02;;;;;;;18.05;16.75;;;;;;;16.79;55.58;100400.88;4958888;28;101542;-74
2023/05/22 02:24:29;;;;;;;17.90;16.48;;;;;;;16.64;55.74;100384.03;4958053;28;101277;-74
2023/05/22 02:26:55;;;;;;;18.33;16.92;;;;;;;16.93;55.46;100397.41;4955703;28;97146;-74
2023/05/22 02:29:20;;;;;;;18.73;17.15;;;;;;;16.78;55.51;100400.94;4955777;28;97413;-74
2023/05/22 02:31:46;;;;;;;17.90;16.52;;;;;;;16.75;55.54;100402.81;4959047;28;97528;-74
2023/05/22 02:34:11;;;;;;;18.17;16.70;;;;;;;16.74;55.34;100395.78;4958116;28;101639;-74
2023/05/22 02:36:37;;;;;;;18.10;16.50;;;;;;;16.43;56.19;100409.94;4959253;28;98509;-74
2023/05/22 02:39:04;;;;;;;18.58;17.17;;;;;;;16.33;56.06;100387.59;4943089;28;97053;-74
2023/05/22 02:41:30;;;;;;;18.63;16.92;;;;;;;16.72;55.42;100410.91;4958024;28;101218;-74
2023/05/22 02:43:55;;;;;;;21.98;16.83;;;;;;;16.87;54.84;100398.63;4959001;28;101011;-74
2023/05/22 02:46:21;;;;;;;18.80;17.02;;;;;;;16.82;54.93;100406.00;4962785;28;97272;-74
2023/05/22 02:48:47;;;;;;;17.75;16.25;;;;;;;16.74;54.68;100394.94;4969881;28;97581;-75
2023/05/22 02:51:12;;;;;;;16.92;15.50;;;;;;;16.83;54.57;100391.78;4957526;28;101379;-75
2023/05/22 02:53:40;;;;;;;18.02;16.70;;;;;;;16.85;54.89;100403.16;4974708;28;98823;-74
2023/05/22 02:56:12;;;;;;;19.08;17.40;;;;;;;16.80;54.88;100402.56;4958807;28;97150;-74
2023/05/22 02:58:38;;;;;;;18.70;17.20;;;;;;;16.75;55.08;100401.94;4956105;28;97119;-75
2023/05/22 03:01:07;;;;;;;18.02;16.55;;;;;;;16.74;55.15;100389.66;4934865;28;101352;-74
2023/05/22 03:03:33;;;;;;;18.27;16.77;;;;;;;16.79;54.81;100400.88;4973980;28;101116;-74
2023/05/22 03:06:00;;;;;;;19.55;17.70;;;;;;;16.67;54.87;100399.75;4958644;28;97348;-74
2023/05/22 03:08:27;;;;;;;18.67;17.17;;;;;;;16.39;55.70;100403.13;4958543;28;97043;-74
2023/05/22 03:10:52;;;;;;;18.73;17.17;;;;;;;16.28;55.50;100402.88;4974540;28;101375;-75
2023/05/22 03:13:18;;;;;;;17.88;16.15;;;;;;;16.64;54.97;100401.72;4940936;28;100948;-74
2023/05/22 03:15:43;;;;;;;18.15;16.70;;;;;;;16.35;55.49;100406.03;4941138;28;97117;-75
2023/05/22 03:18:12;;;;;;;17.90;16.70;;;;;;;16.14;55.51;100397.50;4959006;28;96862;-75
2023/05/22 03:20:39;;;;;;;18.90;17.00;;;;;;;16.06;55.55;100403.25;4941895;28;99104;-75
2023/05/22 03:23:05;;;;;;;18.42;16.85;;;;;;;16.22;55.41;100406.72;4954734;28;101502;-74
2023/05/22 03:25:31;;;;;;;18.98;17.17;;;;;;;16.48;54.95;100396.44;4954367;28;97191;-75
2023/05/22 03:27:56;;;;;;;18.05;16.70;;;;;;;16.12;55.32;100402.91;4942091;28;96948;-74
2023/05/22 03:30:24;;;;;;;18.42;16.67;;;;;;;16.25;55.04;100372.13;4957551;28;99695;-75
2023/05/22 03:33:03;;;;;;;18.30;16.60;;;;;;;16.36;54.74;100397.16;4960015;28;99595;-75
2023/05/22 03:35:29;;;;;;;18.17;16.50;;;;;;;16.64;54.50;100405.25;4973752;28;96903;-74
2023/05/22 03:37:55;;;;;;;19.45;16.75;;;;;;;16.77;53.64;100393.94;4958036;28;96863;-74
2023/05/22 03:40:20;;;;;;;18.30;16.48;;;;;;;16.49;53.92;100377.84;4957013;28;98582;-74
2023/05/22 03:42:46;;;;;;;18.23;16.70;;;;;;;16.18;54.84;100402.56;4973929;28;98094;-74
2023/05/22 03:45:11;;;;;;;17.98;16.38;;;;;;;16.28;54.75;100384.34;4962291;28;96875;-75
2023/05/22 03:47:37;;;;;;;16.90;15.43;;;;;;;16.57;53.86;100406.50;4937765;28;97035;-75
2023/05/22 03:50:03;;;;;;;18.23;15.43;;;;;;;16.74;53.50;100400.25;4952880;28;101382;-75
2023/05/22 03:52:28;;;;;;;18.90;17.00;;;;;;;16.82;53.31;100398.03;4953192;28;101717;-74
2023/05/22 03:54:54;;;;;;;17.60;15.85;;;;;;;16.57;54.17;100389.78;4955057;28;96764;-74
2023/05/22 03:57:19;;;;;;;16.92;15.73;;;;;;;16.81;53.57;100395.47;4954390;28;98543;-74
2023/05/22 03:59:45;;;;;;;19.08;17.55;;;;;;;17.08;53.20;100393.84;4962885;28;98007;-74
2023/05/22 04:02:11;;;;;;;18.10;16.75;;;;;;;16.74;53.53;100387.84;4963139;28;97932;-76
2023/05/22 04:04:37;;;;;;;17.95;16.35;;;;;;;17.12;53.10;100390.03;4954259;28;97000;-75
2023/05/22 04:07:07;;;;;;;21.85;18.27;;;;;;;17.04;52.63;100397.59;4961016;28;97582;-75
2023/05/22 04:09:34;;;;;;;17.65;16.33;;;;;;;17.12;52.36;100373.28;4963399;28;97924;-74
2023/05/22 04:12:00;;;;;;;18.27;16.67;;;;;;;17.29;52.37;100390.84;4953590;28;98108;-75
2023/05/22 04:14:26;;;;;;;19.25;17.70;;;;;;;17.06;52.34;100387.75;4954384;28;97141;-74
2023/05/22 04:16:52;;;;;;;19.13;17.83;;;;;;;17.31;52.19;100368.56;4959509;28;97300;-74
2023/05/22 04:19:18;;;;;;;19.77;17.48;;;;;;;17.67;51.80;100387.63;4953632;28;98425;-74
2023/05/22 04:21:44;;;;;;;19.13;17.23;;;;;;;18.21;50.91;100382.41;4953981;28;101214;-74
2023/05/22 04:24:09;;;;;;;17.15;15.80;;;;;;;17.90;50.91;100360.50;4954006;28;96859;-75
2023/05/22 04:26:36;;;;;;;17.90;16.35;;;;;;;18.00;50.31;100382.00;4949913;28;97272;-75
2023/05/22 04:29:02;;;;;;;22.80;17.02;;;;;;;17.85;50.92;100384.69;4951340;28;100909;-75
2023/05/22 04:31:28;;;;;;;17.60;16.20;;;;;;;17.99;50.34;100388.28;4963533;28;98165;-75
2023/05/22 04:33:54;;;;;;;18.02;16.63;;;;;;;18.36;49.66;100385.91;4946970;28;97281;-75
2023/05/22 04:36:27;;;;;;;19.55;17.65;;;;;;;18.80;49.12;100393.63;4950537;28;96906;-77
2023/05/22 04:38:53;;;;;;;18.35;16.75;;;;;;;18.42;49.00;100386.34;4928036;28;101528;-76
2023/05/22 04:41:21;;;;;;;18.80;17.50;;;;;;;18.79;48.71;100381.25;4960480;28;101072;-75
2023/05/22 04:43:49;;;;;;;18.02;16.48;;;;;;;18.24;49.21;100382.25;4963832;28;97245;-74
2023/05/22 04:46:17;;;;;;;17.80;16.52;;;;;;;18.58;48.84;100380.00;4945814;28;98767;-74
2023/05/22 04:48:43;;;;;;;18.30;16.92;;;;;;;18.93;48.22;100381.19;4944752;28;101561;-75
2023/05/22 04:51:08;;;;;;;19.38;18.08;;;;;;;19.18;47.59;100383.03;4967821;28;101131;-74
2023/05/22 04:53:34;;;;;;;18.58;16.83;;;;;;;19.17;47.45;100384.00;4929471;28;96933;-74
2023/05/22 04:56:01;;;;;;;19.17;17.45;;;;;;;19.79;46.38;100385.03;4962549;28;98289;-75
2023/05/22 04:58:27;;;;;;;18.95;17.48;;;;;;;19.61;46.47;100381.84;4951134;28;100823;-80
2023/05/22 05:00:53;;;;;;;19.17;17.35;;;;;;;19.22;47.39;100379.19;4951623;28;101566;-80
2023/05/22 05:03:21;;;;;;;19.45;17.60;;;;;;;19.11;47.21;100372.91;4950366;28;97845;-80
2023/05/22 05:05:47;;;;;;;19.42;18.02;;;;;;;19.66;47.11;100361.09;4928885;28;97029;-80
2023/05/22 05:08:13;;;;;;;19.98;18.45;;;;;;;20.33;45.39;100380.19;4949189;28;100263;-80
2023/05/22 05:10:38;;;;;;;19.80;18.20;;;;;;;19.61;46.05;100387.19;4945467;28;101355;-76
2023/05/22 05:13:04;;;;;;;18.73;17.02;;;;;;;19.93;45.97;100386.72;4951173;28;96903;-79
2023/05/22 05:15:31;;;;;;;18.48;17.08;;;;;;;20.23;44.84;100388.97;4969848;28;96863;-79
2023/05/22 05:17:57;;;;;;;19.75;17.95;;;;;;;20.65;44.58;100360.94;4965304;28;98643;-79
2023/05/22 05:20:23;;;;;;;19.80;18.30;;;;;;;21.26;43.10;100363.41;4929255;28;101984;-80
2023/05/22 05:22:49;;;;;;;19.20;17.42;;;;;;;22.36;41.31;100381.31;4969495;28;97274;-78
2023/05/22 05:25:16;;;;;;;18.90;17.20;;;;;;;22.59;40.08;100376.72;4946595;28;97829;-80
2023/05/22 05:27:42;;;;;;;19.98;18.38;;;;;;;22.81;39.81;100374.94;4964460;28;101474;-80
2023/05/22 05:30:09;;;;;;;19.50;17.90;;;;;;;23.13;38.61;100376.75;4944773;28;99413;-77
2023/05/22 05:33:07;;;;;;;18.65;17.33;;;;;;;23.76;37.55;100372.13;4931264;28;97379;-69
2023/05/22 05:35:41;;;;;;;19.63;17.73;;;;;;;23.01;38.44;100376.81;4954678;28;97011;-73
2023/05/22 05:38:09;;;;;;;18.10;16.80;;;;;;;24.32;36.49;100373.41;4968319;28;101607;-74
2023/05/22 05:40:36;;;;;;;20.42;18.40;;;;;;;25.35;35.59;100374.63;4937255;28;101833;-73
2023/05/22 05:43:04;;;;;;;17.80;16.60;;;;;;;27.09;32.71;100369.97;4936326;28;97197;-73
2023/05/22 05:45:30;;;;;;;19.25;17.70;;;;;;;30.63;28.72;100362.50;4933456;28;97170;-74
2023/05/22 05:47:56;;;;;;;19.35;17.70;;;;;;;33.68;25.12;100348.06;4948431;28;101074;-74
2023/05/22 05:50:22;;;;;;;19.58;17.90;;;;;;;35.62;22.86;100349.94;4951067;28;101975;-74
2023/05/22 05:52:48;;;;;;;19.23;17.88;;;;;;;37.58;21.37;100341.53;4948654;28;98071;-74
2023/05/22 05:55:16;;;;;;;18.58;17.10;;;;;;;39.72;18.99;100341.69;4942197;28;97208;-76
2023/05/22 05:57:42;;;;;;;19.48;18.15;;;;;;;39.65;19.08;100341.84;4965283;28;100389;-75
2023/05/22 06:00:13;;;;;;;18.60;17.20;;;;;;;39.47;18.60;100336.50;4942801;28;101415;-75
2023/05/22 06:02:42;;;;;;;18.23;16.75;;;;;;;41.52;17.00;100338.16;4963179;28;97140;-76
2023/05/22 06:05:28;;;;;;;19.52;18.23;;;;;;;39.94;18.37;100344.59;4960658;28;97108;-77
2023/05/22 06:08:03;;;;;;;19.08;17.45;;;;;;;39.16;18.75;100322.91;4951259;28;99982;-76
2023/05/22 06:10:29;;;;;;;18.85;17.67;;;;;;;41.81;16.76;100339.59;4961324;28;98255;-76
2023/05/22 06:13:09;;;;;;;19.38;17.98;;;;;;;44.32;15.18;100329.31;4931878;28;97514;-77
2023/05/22 06:15:35;;;;;;;16.20;14.98;;;;;;;44.50;14.95;100326.03;4952474;28;97366;-76
2023/05/22 06:18:01;;;;;;;15.88;14.45;;;;;;;45.21;14.97;100329.81;4949229;28;100955;-76
2023/05/22 06:20:28;;;;;;;15.90;14.48;;;;;;;43.84;14.74;100323.97;4944658;28;101541;-76
2023/05/22 06:22:53;;;;;;;14.25;13.25;;;;;;;45.32;14.04;100318.41;4952254;28;97295;-76
2023/05/22 06:25:19;;;;;;;15.02;13.77;;;;;;;44.34;14.35;100327.16;4947839;28;97581;-78
2023/05/22 06:27:46;;;;;;;15.77;14.32;;;;;;;42.72;15.35;100316.78;4933376;28;101903;-76
2023/05/22 06:30:12;;;;;;;14.10;12.93;;;;;;;44.22;14.88;100319.06;4970268;28;98194;-76
2023/05/22 06:32:38;;;;;;;15.98;14.57;;;;;;;43.98;14.97;100327.91;4950134;28;97565;-76
2023/05/22 06:35:05;;;;;;;17.13;15.85;;;;;;;42.20;16.20;100327.59;4947282;28;96952;-77
2023/05/22 06:37:34;;;;;;;17.17;16.05;;;;;;;43.50;14.92;100326.34;4931950;28;101705;-76
2023/05/22 06:40:00;;;;;;;18.40;16.85;;;;;;;43.32;14.78;100328.47;4944628;28;101567;-77
2023/05/22 06:42:51;;;;;;;14.75;13.57;;;;;;;46.82;13.36;100325.47;4951813;28;97323;-76
2023/05/22 06:45:31;;;;;;;15.52;14.43;;;;;;;48.12;12.39;100321.63;4952467;28;97220;-76
2023/05/22 06:48:15;;;;;;;16.17;14.82;;;;;;;49.02;11.97;100316.72;4972554;28;98802;-77
2023/05/22 06:51:16;;;;;;;15.82;14.63;;;;;;;48.95;11.89;100325.47;4947172;28;98840;-78
2023/05/22 06:53:44;;;;;;;15.95;14.75;;;;;;;51.76;10.55;100322.38;4936277;28;97282;-78
2023/05/22 06:56:15;;;;;;;16.58;15.43;;;;;;;51.92;9.97;100320.72;4953091;28;97001;-77
2023/05/22 06:58:51;;;;;;;16.92;15.57;;;;;;;52.85;10.10;100324.03;4966139;28;101483;-77
2023/05/22 07:01:19;;;;;;;16.48;15.45;;;;;;;51.87;10.06;100325.66;4934067;28;99464;-77
2023/05/22 07:04:03;;;;;;;16.88;15.77;;;;;;;53.47;9.40;100325.38;4953654;28;96929;-78
2023/05/22 07:06:37;;;;;;;16.88;15.60;;;;;;;53.53;9.59;100322.03;4935540;28;97614;-78
2023/05/22 07:09:05;;;;;;;16.67;15.25;;;;;;;54.16;9.30;100312.78;4942018;28;102134;-77
2023/05/22 07:11:31;;;;;;;17.55;16.25;;;;;;;54.65;8.90;100313.75;4962191;28;99415;-79
2023/05/22 07:13:57;;;;;;;17.73;16.20;;;;;;;54.98;9.30;100314.84;4964417;28;97858;-77
2023/05/22 07:16:24;;;;;;;17.70;16.30;;;;;;;53.91;9.07;100315.47;4935399;28;97357;-79
2023/05/22 07:18:50;;;;;;;17.00;15.70;;;;;;;55.10;8.62;100307.25;4947461;28;102032;-78
2023/05/22 07:21:16;;;;;;;17.75;16.45;;;;;;;55.70;8.41;100289.78;4938118;28;101449;-78
2023/05/22 07:23:42;;;;;;;18.55;17.00;;;;;;;56.29;8.56;100307.97;4943755;28;97777;-78
2023/05/22 07:26:08;;;;;;;18.30;16.95;;;;;;;55.73;8.55;100306.78;4951749;28;97748;-77
2023/05/22 07:28:38;;;;;;;16.88;15.43;;;;;;;54.91;8.96;100309.78;4948103;28;99609;-81
2023/05/22 07:31:11;;;;;;;17.45;16.17;;;;;;;56.30;8.48;100298.34;4938745;28;101761;-80
2023/05/22 07:33:36;;;;;;;18.02;16.67;;;;;;;55.65;8.35;100292.84;4965543;28;97184;-80
2023/05/22 07:36:02;;;;;;;18.17;16.65;;;;;;;55.90;8.40;100296.41;4944304;28;97018;-80
2023/05/22 07:38:29;;;;;;;16.90;15.70;;;;;;;56.09;8.23;100296.53;4952492;28;100399;-80
2023/05/22 07:40:59;;;;;;;17.10;15.88;;;;;;;57.30;8.59;100301.66;4942464;28;100914;-80
2023/05/22 07:43:25;;;;;;;18.55;17.08;;;;;;;55.45;8.42;100294.63;4948155;28;97377;-80
2023/05/22 07:45:52;;;;;;;17.52;16.33;;;;;;;54.04;9.42;100291.94;4951837;28;97054;-80
2023/05/22 07:48:21;;;;;;;17.95;16.60;;;;;;;56.34;8.77;100285.97;4960070;28;101838;-80
2023/05/22 07:50:47;;;;;;;18.58;17.17;;;;;;;53.41;9.40;100279.06;4941340;28;100665;-80
2023/05/22 07:53:15;;;;;;;19.17;17.05;;;;;;;56.69;8.05;100293.72;4934223;28;97078;-80
2023/05/22 07:55:42;;;;;;;17.00;15.77;;;;;;;52.94;9.95;100285.59;4938924;28;97000;-80
2023/05/22 07:58:09;;;;;;;18.45;17.05;;;;;;;55.57;8.64;100291.81;4952984;28;100041;-80
2023/05/22 08:00:40;;;;;;;17.13;16.02;;;;;;;55.11;8.73;100285.56;4955807;28;100810;-80
2023/05/22 08:03:06;;;;;;;17.98;16.70;;;;;;;54.69;8.46;100288.59;4938194;28;97400;-80
2023/05/22 08:05:31;;;;;;;18.55;17.30;;;;;;;57.02;8.05;100290.50;4971094;28;96802;-79
2023/05/22 08:07:57;;;;;;;19.05;17.75;;;;;;;56.54;8.31;100286.09;4970557;28;97647;-80
2023/05/22 08:10:22;;;;;;;19.13;17.77;;;;;;;52.31;9.39;100268.50;4955066;28;100861;-81
2023/05/22 08:12:48;;;;;;;18.88;17.38;;;;;;;55.86;7.92;100261.69;4969741;28;97309;-80
2023/05/22 08:15:13;;;;;;;18.08;16.77;;;;;;;58.10;7.09;100267.44;4939236;28;97337;-80
2023/05/22 08:17:39;;;;;;;20.20;18.35;;;;;;;56.92;7.73;100268.53;4950065;28;101386;-83
2023/05/22 08:20:05;;;;;;;17.88;16.67;;;;;;;51.87;9.85;100281.72;4953402;28;97839;-83
2023/05/22 08:22:31;;;;;;;17.45;16.25;;;;;;;52.72;9.42;100279.13;4961775;28;97401;-85
2023/05/22 08:24:56;;;;;;;17.83;16.63;;;;;;;53.79;8.75;100287.34;4953200;28;97103;-86
2023/05/22 08:27:22;;;;;;;18.35;16.83;;;;;;;53.06;8.63;100274.50;4953536;28;99582;-81
2023/05/22 08:29:47;;;;;;;17.90;16.40;;;;;;;53.87;9.28;100277.22;4966799;28;97969;-86
2023/05/22 08:32:13;;;;;;;18.77;17.50;;;;;;;53.16;9.31;100273.28;4966672;28;97297;-86
2023/05/22 08:34:39;;;;;;;18.38;16.85;;;;;;;54.86;9.30;100270.69;4945207;28;97405;-84
2023/05/22 08:37:05;;;;;;;17.80;16.63;;;;;;;52.12;9.25;100280.06;4952836;28;101339;-80
2023/05/22 08:39:32;;;;;;;17.40;16.30;;;;;;;48.46;10.64;100274.00;4969785;28;97117;-80
2023/05/22 08:41:58;;;;;;;17.85;16.17;;;;;;;46.30;11.93;100282.66;4966530;28;97180;-79
2023/05/22 08:44:24;;;;;;;16.67;15.68;;;;;;;44.79;13.03;100289.50;4967673;28;97398;-80
2023/05/22 08:46:50;;;;;;;17.05;15.75;;;;;;;44.43;13.68;100284.81;4938032;28;100987;-79
2023/05/22 08:49:17;;;;;;;17.73;16.38;;;;;;;41.19;15.26;100262.78;4937653;28;101171;-80
2023/05/22 08:51:46;;;;;;;16.23;15.23;;;;;;;41.44;15.19;100277.97;4949385;28;96802;-84
2023/05/22 08:54:14;;;;;;;16.25;14.98;;;;;;;39.27;17.01;100282.81;4932939;28;96923;-83
2023/05/22 08:56:40;;;;;;;25.67;23.70;;;;;;;37.30;18.01;100253.66;4952573;28;100365;-79
2023/05/22 08:59:06;;;;;;;17.45;16.30;;;;;;;34.41;20.33;100281.03;4950423;28;100875;-79
2023/05/22 09:01:32;;;;;;;15.80;14.30;;;;;;;33.01;21.12;100262.53;4950343;28;96909;-79
2023/05/22 09:04:01;;;;;;;16.80;15.80;;;;;;;33.00;21.04;100288.03;4954054;28;97834;-79
2023/05/22 09:06:30;;;;;;;17.80;16.48;;;;;;;31.85;21.39;100270.84;4935320;28;100840;-83
2023/05/22 09:08:56;;;;;;;17.45;16.17;;;;;;;29.90;23.55;100259.13;4945827;28;97764;-83
2023/05/22 09:11:23;;;;;;;16.80;15.52;;;;;;;29.53;23.75;100279.59;4953751;28;96911;-84
2023/05/22 09:13:50;;;;;;;17.33;15.98;;;;;;;29.19;24.31;100265.56;4933929;28;97617;-83
2023/05/22 09:16:16;;;;;;;18.67;17.17;;;;;;;30.54;23.70;100269.63;4934098;28;101924;-83
2023/05/22 09:18:41;;;;;;;16.67;15.32;;;;;;;29.65;23.05;100271.13;4953843;28;98416;-83
2023/05/22 09:21:08;;;;;;;6.97;6.22;;;;;;;30.59;21.83;100271.81;4937204;28;96785;-83
2023/05/22 09:23:33;;;;;;;9.18;6.40;;;;;;;31.06;21.34;100257.97;4952306;28;97474;-83
2023/05/22 09:26:01;;;;;;;13.70;12.50;;;;;;;29.28;23.21;100272.59;4969193;28;98081;-83
2023/05/22 09:28:28;;;;;;;10.77;9.70;;;;;;;29.46;23.35;100267.78;4952419;28;100522;-82
2023/05/22 09:30:54;;;;;;;8.57;7.85;;;;;;;30.03;22.11;100258.53;4937690;28;97189;-82
2023/05/22 09:33:21;;;;;;;7.65;7.07;;;;;;;29.14;22.82;100276.03;4969516;28;97302;-83
2023/05/22 09:35:48;;;;;;;5.10;2.78;;;;;;;28.79;22.93;100278.94;4969460;28;98453;-83
2023/05/22 09:38:14;;;;;;;6.15;2.38;;;;;;;29.25;22.88;100260.28;4952353;28;97995;-83
2023/05/22 09:40:40;;;;;;;3.92;2.53;;;;;;;28.61;23.38;100272.91;4953003;28;97275;-83
2023/05/22 09:43:07;;;;;;;3.30;2.20;;;;;;;28.13;23.94;100264.63;4951967;28;96995;-83
2023/05/22 09:45:37;;;;;;;6.68;6.07;;;;;;;27.80;24.37;100261.00;4952732;28;98005;-82
2023/05/22 09:48:07;;;;;;;7.28;2.85;;;;;;;27.20;23.78;100261.09;4963391;28;102103;-83
2023/05/22 09:50:33;;;;;;;7.57;2.85;;;;;;;28.56;23.89;100251.81;4952599;28;96968;-82
2023/05/22 09:53:03;;;;;;;17.05;15.85;;;;;;;28.15;24.44;100253.66;4969529;28;97379;-82
2023/05/22 09:55:30;;;;;;;17.10;15.90;;;;;;;28.19;24.25;100257.72;4949733;28;100828;-82
2023/05/22 09:57:57;;;;;;;15.70;14.60;;;;;;;28.49;24.35;100267.00;4946900;28;101218;-83
2023/05/22 10:00:24;;;;;;;15.93;14.75;;;;;;;28.18;24.60;100247.91;4936950;28;96841;-83
2023/05/22 10:02:53;;;;;;;14.63;13.73;;;;;;;27.23;25.24;100261.66;4952761;28;97088;-83
2023/05/22 10:05:22;;;;;;;15.40;14.38;;;;;;;27.79;24.34;100253.94;4953188;28;97897;-83
2023/05/22 10:07:54;;;;;;;14.65;13.73;;;;;;;27.58;24.74;100250.81;4950425;28;101497;-82
2023/05/22 10:10:26;;;;;;;16.15;14.85;;;;;;;26.97;26.13;100236.56;4953305;28;97414;-82
2023/05/22 10:12:56;;;;;;;16.33;15.13;;;;;;;26.60;25.67;100227.75;4952489;28;97053;-82
2023/05/22 10:15:21;;;;;;;15.70;14.63;;;;;;;27.39;25.42;100249.25;4936405;28;101890;-82
2023/05/22 10:17:48;;;;;;;16.15;14.82;;;;;;;27.92;24.69;100239.97;4951601;28;101798;-81
2023/05/22 10:20:15;;;;;;;16.05;14.75;;;;;;;28.67;23.90;100234.41;4936860;28;98498;-84
2023/05/22 10:22:41;;;;;;;15.23;14.00;;;;;;;28.66;24.03;100238.13;4951607;28;97390;-82
2023/05/22 10:25:07;;;;;;;14.50;13.40;;;;;;;27.92;23.70;100248.06;4949441;28;101422;-82
2023/05/22 10:27:33;;;;;;;14.77;13.75;;;;;;;27.75;23.72;100247.13;4929802;28;101355;-83
2023/05/22 10:30:24;;;;;;;15.38;14.20;;;;;;;27.09;24.31;100241.50;4969295;28;97209;-82
2023/05/22 10:33:15;;;;;;;14.95;13.68;;;;;;;27.22;24.41;100233.00;4966151;28;96775;-82
2023/05/22 10:35:45;;;;;;;14.45;13.20;;;;;;;26.93;24.36;100238.72;4935648;28;101490;-82
2023/05/22 10:38:48;;;;;;;15.80;14.60;;;;;;;26.58;25.04;100229.75;4954449;28;98384;-83
2023/05/22 10:41:13;;;;;;;15.18;13.77;;;;;;;27.59;24.37;100237.19;4973472;28;97305;-83
2023/05/22 10:43:42;;;;;;;17.98;14.30;;;;;;;27.55;24.65;100233.13;4955070;28;97194;-82
2023/05/22 10:46:11;;;;;;;13.88;12.85;;;;;;;27.62;23.95;100219.84;4972304;28;97885;-82
2023/05/22 10:48:44;;;;;;;14.55;13.50;;;;;;;27.19;24.73;100227.94;4949036;28;100781;-83
2023/05/22 10:51:11;;;;;;;14.88;13.88;;;;;;;27.41;24.79;100231.06;4940401;28;97138;-81
2023/05/22 10:53:39;;;;;;;15.45;13.43;;;;;;;27.40;24.23;100232.91;4934509;28;96966;-82
2023/05/22 10:56:15;;;;;;;14.63;13.63;;;;;;;27.36;24.76;100215.38;4955761;28;101716;-82
2023/05/22 10:58:58;;;;;;;15.25;14.00;;;;;;;27.17;24.93;100218.31;4955622;28;97939;-81
2023/05/22 11:01:26;;;;;;;15.98;14.55;;;;;;;27.13;25.70;100225.84;4941941;28;97221;-81
2023/05/22 11:03:58;;;;;;;15.18;13.98;;;;;;;27.23;25.82;100221.22;4953390;28;97540;-82
2023/05/22 11:06:39;;;;;;;15.38;13.98;;;;;;;27.08;25.95;100226.34;4951429;28;101586;-82
2023/05/22 11:09:32;;;;;;;17.65;13.60;;;;;;;26.99;26.47;100221.91;4948446;28;98491;-81
2023/05/22 11:12:18;;;;;;;14.65;13.52;;;;;;;27.14;26.57;100221.31;4948103;28;97131;-81
2023/05/22 11:14:48;;;;;;;14.85;13.57;;;;;;;26.28;26.41;100217.56;4971901;28;97116;-81
2023/05/22 11:17:18;;;;;;;15.53;14.23;;;;;;;26.28;28.29;100219.44;4971906;28;98220;-81